createdAt,value
2023-05-01T00:01:05.410Z,12.09
2023-05-01T00:06:03.386Z,12.10
2023-05-01T00:08:31.891Z,12.10
2023-05-01T00:11:09.815Z,12.10
2023-05-01T00:13:37.537Z,12.11
2023-05-01T00:16:12.636Z,12.13
2023-05-01T00:18:40.454Z,12.15
2023-05-01T00:21:08.000Z,12.14
2023-05-01T00:23:35.755Z,12.15
2023-05-01T00:26:03.500Z,12.14
2023-05-01T00:28:31.400Z,12.15
2023-05-01T00:30:59.103Z,12.13
2023-05-01T00:33:26.688Z,12.14
2023-05-01T00:35:55.838Z,12.14
2023-05-01T00:38:24.369Z,12.11
2023-05-01T00:40:52.379Z,12.11
2023-05-01T00:43:19.903Z,12.11
2023-05-01T00:45:47.546Z,12.12
2023-05-01T00:48:15.623Z,12.11
2023-05-01T00:50:44.862Z,12.09
2023-05-01T00:53:12.770Z,12.08
2023-05-01T00:55:42.354Z,12.06
2023-05-01T00:58:11.979Z,12.06
2023-05-01T01:00:39.720Z,12.03
2023-05-01T01:03:07.697Z,12.01
2023-05-01T01:05:42.112Z,11.99
2023-05-01T01:08:24.200Z,11.94
2023-05-01T01:11:35.809Z,11.91
2023-05-01T01:14:17.758Z,11.91
2023-05-01T01:17:16.941Z,11.88
2023-05-01T01:19:50.746Z,11.90
2023-05-01T01:22:24.050Z,11.90
2023-05-01T01:25:16.745Z,11.90
2023-05-01T01:28:18.292Z,11.88
2023-05-01T01:31:05.238Z,11.88
2023-05-01T01:33:51.712Z,11.86
2023-05-01T01:36:37.883Z,11.87
2023-05-01T01:39:46.896Z,11.84
2023-05-01T01:42:20.429Z,11.84
2023-05-01T01:45:05.090Z,11.81
2023-05-01T01:47:34.569Z,11.78
2023-05-01T01:50:06.859Z,11.78
2023-05-01T01:52:36.534Z,11.76
2023-05-01T01:55:09.687Z,11.74
2023-05-01T01:57:39.767Z,11.72
2023-05-01T02:00:11.239Z,11.72
2023-05-01T02:02:47.002Z,11.72
2023-05-01T02:05:17.954Z,11.73
2023-05-01T02:07:50.424Z,11.73
2023-05-01T02:10:18.865Z,11.72
2023-05-01T02:12:48.676Z,11.72
2023-05-01T02:15:19.126Z,11.70
2023-05-01T02:17:48.598Z,11.67
2023-05-01T02:20:16.710Z,11.67
2023-05-01T02:22:46.414Z,11.64
2023-05-01T02:25:16.807Z,11.62
2023-05-01T02:27:53.117Z,11.59
2023-05-01T02:30:21.786Z,11.58
2023-05-01T02:32:49.363Z,11.57
2023-05-01T02:35:17.813Z,11.58
2023-05-01T02:37:45.929Z,11.57
2023-05-01T02:40:15.232Z,11.56
2023-05-01T02:42:48.934Z,11.56
2023-05-01T02:45:22.678Z,11.57
2023-05-01T02:47:53.928Z,11.57
2023-05-01T02:50:23.466Z,11.58
2023-05-01T02:52:51.493Z,11.55
2023-05-01T02:55:39.754Z,11.55
2023-05-01T02:58:07.347Z,11.57
2023-05-01T03:00:35.574Z,11.59
2023-05-01T03:03:03.454Z,11.62
2023-05-01T03:05:31.114Z,11.62
2023-05-01T03:07:58.732Z,11.62
2023-05-01T03:10:26.268Z,11.64
2023-05-01T03:12:53.802Z,11.63
2023-05-01T03:15:21.335Z,11.65
2023-05-01T03:17:48.971Z,11.66
2023-05-01T03:20:16.685Z,11.63
2023-05-01T03:22:44.272Z,11.60
2023-05-01T03:25:12.107Z,11.59
2023-05-01T03:27:39.694Z,11.58
2023-05-01T03:30:08.957Z,11.59
2023-05-01T03:32:39.269Z,11.60
2023-05-01T03:35:10.746Z,11.60
2023-05-01T03:37:38.559Z,11.57
2023-05-01T03:40:06.944Z,11.52
2023-05-01T03:43:13.009Z,11.43
2023-05-01T03:45:41.674Z,11.33
2023-05-01T03:48:10.364Z,11.26
2023-05-01T03:50:38.266Z,11.20
2023-05-01T03:53:05.755Z,11.17
2023-05-01T03:55:33.737Z,11.15
2023-05-01T03:58:01.731Z,11.16
2023-05-01T04:00:29.603Z,11.17
2023-05-01T04:02:57.710Z,11.19
2023-05-01T04:05:25.843Z,11.19
2023-05-01T04:07:58.694Z,11.21
2023-05-01T04:10:26.571Z,11.23
2023-05-01T04:13:05.055Z,11.26
2023-05-01T04:15:33.077Z,11.25
2023-05-01T04:18:01.868Z,11.24
2023-05-01T04:20:29.738Z,11.21
2023-05-01T04:22:57.403Z,11.20
2023-05-01T04:25:25.219Z,11.25
2023-05-01T04:27:57.463Z,11.27
2023-05-01T04:30:24.970Z,11.30
2023-05-01T04:32:52.685Z,11.32
2023-05-01T04:35:20.278Z,11.34
2023-05-01T04:37:47.781Z,11.34
2023-05-01T04:40:15.345Z,11.37
2023-05-01T04:42:44.001Z,11.40
2023-05-01T04:45:14.534Z,11.40
2023-05-01T04:47:42.203Z,11.38
2023-05-01T04:50:11.547Z,11.39
2023-05-01T04:52:39.290Z,11.35
2023-05-01T04:55:07.709Z,11.34
2023-05-01T04:57:38.295Z,11.35
2023-05-01T05:00:08.639Z,11.36
2023-05-01T05:02:46.801Z,11.36
2023-05-01T05:05:16.046Z,11.39
2023-05-01T05:07:43.673Z,11.40
2023-05-01T05:10:29.659Z,11.40
2023-05-01T05:13:17.512Z,11.41
2023-05-01T05:15:46.720Z,11.44
2023-05-01T05:18:14.870Z,11.44
2023-05-01T05:20:42.571Z,11.49
2023-05-01T05:23:10.500Z,11.56
2023-05-01T05:25:38.216Z,11.61
2023-05-01T05:28:05.770Z,11.67
2023-05-01T05:30:33.355Z,11.73
2023-05-01T05:33:01.044Z,11.78
2023-05-01T05:35:28.728Z,11.86
2023-05-01T05:37:56.355Z,11.90
2023-05-01T05:40:25.296Z,11.94
2023-05-01T05:42:56.723Z,11.99
2023-05-01T05:45:26.796Z,12.02
2023-05-01T05:47:54.455Z,12.07
2023-05-01T05:50:22.949Z,12.11
2023-05-01T05:52:50.753Z,12.14
2023-05-01T05:55:18.493Z,12.13
2023-05-01T05:57:59.340Z,12.14
2023-05-01T06:00:27.378Z,12.17
2023-05-01T06:02:56.720Z,12.18
2023-05-01T06:05:27.863Z,12.20
2023-05-01T06:07:55.566Z,12.23
2023-05-01T06:10:23.110Z,12.25
2023-05-01T06:13:01.763Z,12.30
2023-05-01T06:15:38.834Z,12.58
2023-05-01T06:18:08.014Z,12.97
2023-05-01T06:20:36.214Z,13.13
2023-05-01T06:23:03.772Z,13.16
2023-05-01T06:25:42.932Z,13.07
2023-05-01T06:28:11.227Z,13.01
2023-05-01T06:30:39.002Z,12.94
2023-05-01T06:33:06.875Z,12.88
2023-05-01T06:35:34.674Z,12.85
2023-05-01T06:38:03.109Z,12.88
2023-05-01T06:40:31.811Z,12.92
2023-05-01T06:42:59.549Z,12.95
2023-05-01T06:45:30.602Z,12.94
2023-05-01T06:47:58.220Z,12.91
2023-05-01T06:50:25.882Z,12.91
2023-05-01T06:52:53.614Z,12.90
2023-05-01T06:55:21.884Z,12.90
2023-05-01T06:57:49.499Z,12.92
2023-05-01T07:00:18.178Z,12.91
2023-05-01T07:02:46.684Z,12.96
2023-05-01T07:05:14.334Z,12.99
2023-05-01T07:07:47.285Z,13.02
2023-05-01T07:10:18.375Z,13.02
2023-05-01T07:12:46.506Z,13.02
2023-05-01T07:15:16.325Z,13.03
2023-05-01T07:17:44.076Z,13.03
2023-05-01T07:20:12.709Z,13.01
2023-05-01T07:22:40.343Z,13.00
2023-05-01T07:25:08.479Z,12.99
2023-05-01T07:27:36.266Z,12.98
2023-05-01T07:30:05.319Z,13.01
2023-05-01T07:32:33.246Z,13.07
2023-05-01T07:35:00.920Z,13.10
2023-05-01T07:37:28.882Z,13.19
2023-05-01T07:39:58.440Z,13.34
2023-05-01T07:42:29.470Z,13.53
2023-05-01T07:44:57.062Z,13.81
2023-05-01T07:47:24.723Z,14.02
2023-05-01T07:49:52.295Z,14.12
2023-05-01T07:52:19.887Z,14.21
2023-05-01T07:54:54.268Z,14.31
2023-05-01T07:57:23.407Z,14.37
2023-05-01T07:59:58.209Z,14.40
2023-05-01T08:02:26.201Z,14.36
2023-05-01T08:04:54.154Z,14.33
2023-05-01T08:07:21.823Z,14.38
2023-05-01T08:09:49.424Z,14.47
2023-05-01T08:12:16.920Z,14.56
2023-05-01T08:14:44.580Z,14.62
2023-05-01T08:17:12.159Z,14.59
2023-05-01T08:19:39.696Z,14.61
2023-05-01T08:22:07.279Z,14.62
2023-05-01T08:24:34.818Z,14.68
2023-05-01T08:27:02.832Z,14.81
2023-05-01T08:29:30.838Z,15.01
2023-05-01T08:31:58.952Z,15.26
2023-05-01T08:34:26.911Z,15.34
2023-05-01T08:36:54.585Z,15.24
2023-05-01T08:39:22.159Z,15.15
2023-05-01T08:41:50.138Z,15.14
2023-05-01T08:44:19.730Z,15.16
2023-05-01T08:46:51.014Z,15.26
2023-05-01T08:49:22.158Z,15.43
2023-05-01T08:51:53.016Z,15.66
2023-05-01T08:54:21.357Z,15.88
2023-05-01T08:56:51.712Z,16.21
2023-05-01T08:59:20.634Z,16.40
2023-05-01T09:01:48.651Z,16.37
2023-05-01T09:04:17.412Z,16.30
2023-05-01T09:06:45.445Z,16.25
2023-05-01T09:09:13.160Z,16.27
2023-05-01T09:11:41.172Z,16.37
2023-05-01T09:14:09.321Z,16.25
2023-05-01T09:16:37.050Z,15.94
2023-05-01T09:19:04.794Z,15.68
2023-05-01T09:21:32.542Z,15.43
2023-05-01T09:24:00.644Z,15.33
2023-05-01T09:26:28.223Z,15.43
2023-05-01T09:28:59.773Z,15.65
2023-05-01T09:31:29.928Z,15.86
2023-05-01T09:33:59.446Z,16.14
2023-05-01T09:36:29.875Z,16.85
2023-05-01T09:38:58.491Z,18.47
2023-05-01T09:41:27.074Z,20.03
2023-05-01T09:43:58.072Z,21.08
2023-05-01T09:46:27.074Z,21.52
2023-05-01T09:48:59.988Z,21.50
2023-05-01T09:51:33.104Z,21.22
2023-05-01T09:54:02.858Z,21.22
2023-05-01T09:56:32.003Z,20.98
2023-05-01T09:59:18.098Z,21.37
2023-05-01T10:01:48.202Z,22.05
2023-05-01T10:04:16.063Z,22.18
2023-05-01T10:06:43.704Z,22.02
2023-05-01T10:09:17.627Z,21.64
2023-05-01T10:11:49.891Z,21.54
2023-05-01T10:14:17.557Z,21.16
2023-05-01T10:22:02.654Z,20.45
2023-05-01T10:24:32.222Z,20.37
2023-05-01T10:27:01.244Z,20.42
2023-05-01T10:29:31.605Z,20.83
2023-05-01T10:32:01.047Z,21.84
2023-05-01T10:34:29.347Z,22.87
2023-05-01T10:37:04.820Z,23.14
2023-05-01T10:39:36.254Z,23.39
2023-05-01T10:42:16.760Z,23.48
2023-05-01T10:44:48.007Z,23.94
2023-05-01T10:48:20.444Z,24.06
2023-05-01T10:51:26.643Z,23.23
2023-05-01T10:54:13.960Z,22.66
2023-05-01T10:56:43.597Z,22.76
2023-05-01T10:59:13.080Z,23.46
2023-05-01T11:06:02.957Z,25.31
2023-05-01T11:08:38.301Z,25.12
2023-05-01T11:15:40.749Z,25.26
2023-05-01T11:18:08.977Z,24.49
2023-05-01T11:20:36.635Z,23.66
2023-05-01T11:23:04.264Z,22.88
2023-05-01T11:25:33.173Z,22.38
2023-05-01T11:28:02.576Z,22.14
2023-05-01T11:30:40.521Z,22.04
2023-05-01T11:33:10.729Z,21.73
2023-05-01T11:35:39.356Z,21.51
2023-05-01T11:38:16.425Z,21.54
2023-05-01T11:40:44.353Z,21.79
2023-05-01T11:43:12.768Z,21.77
2023-05-01T11:45:40.673Z,21.42
2023-05-01T11:48:17.143Z,21.95
2023-05-01T11:50:44.746Z,22.73
2023-05-01T11:53:17.742Z,23.51
2023-05-01T11:55:45.795Z,24.03
2023-05-01T11:58:13.527Z,24.44
2023-05-01T12:00:42.936Z,25.03
2023-05-01T12:03:12.662Z,25.26
2023-05-01T12:05:43.286Z,25.38
2023-05-01T12:08:21.939Z,25.45
2023-05-01T12:10:56.290Z,25.55
2023-05-01T12:13:27.092Z,25.76
2023-05-01T12:15:56.252Z,25.90
2023-05-01T12:18:24.148Z,26.14
2023-05-01T12:20:56.857Z,26.15
2023-05-01T12:23:37.440Z,26.39
2023-05-01T12:26:19.100Z,26.75
2023-05-01T12:28:55.580Z,26.55
2023-05-01T12:31:23.779Z,26.47
2023-05-01T12:33:59.439Z,25.93
2023-05-01T12:36:29.001Z,25.59
2023-05-01T12:39:02.950Z,25.80
2023-05-01T12:41:38.358Z,26.14
2023-05-01T12:48:15.003Z,26.31
2023-05-01T12:50:43.984Z,25.80
2023-05-01T12:53:12.660Z,25.44
2023-05-01T12:55:48.304Z,25.76
2023-05-01T12:58:16.543Z,26.29
2023-05-01T13:00:52.489Z,26.69
2023-05-01T13:03:25.270Z,27.06
2023-05-01T13:05:57.968Z,27.26
2023-05-01T13:08:33.440Z,27.37
2023-05-01T13:11:09.715Z,27.81
2023-05-01T13:13:37.762Z,27.92
2023-05-01T13:16:05.652Z,27.81
2023-05-01T13:18:34.403Z,27.79
2023-05-01T13:21:10.104Z,27.55
2023-05-01T13:23:39.134Z,27.61
2023-05-01T13:26:11.203Z,27.55
2023-05-01T13:28:45.652Z,27.28
2023-05-01T13:31:17.237Z,27.42
2023-05-01T13:33:44.885Z,27.35
2023-05-01T13:36:25.133Z,27.22
2023-05-01T13:38:57.024Z,27.21
2023-05-01T13:41:26.345Z,27.22
2023-05-01T13:43:56.407Z,27.14
2023-05-01T13:46:27.403Z,26.91
2023-05-01T13:48:55.465Z,26.61
2023-05-01T13:51:25.287Z,26.49
2023-05-01T13:53:54.184Z,26.56
2023-05-01T13:56:22.306Z,26.67
2023-05-01T13:58:50.691Z,26.49
2023-05-01T14:01:24.017Z,26.66
2023-05-01T14:03:52.144Z,26.65
2023-05-01T14:06:21.373Z,26.62
2023-05-01T14:08:51.111Z,26.67
2023-05-01T14:11:20.155Z,26.22
2023-05-01T14:13:51.013Z,25.18
2023-05-01T14:16:27.080Z,23.85
2023-05-01T14:18:57.282Z,22.85
2023-05-01T14:21:30.142Z,22.29
2023-05-01T14:23:58.587Z,21.78
2023-05-01T14:26:26.380Z,21.18
2023-05-01T14:28:54.761Z,20.56
2023-05-01T14:31:27.758Z,20.10
2023-05-01T14:34:00.483Z,19.63
2023-05-01T14:36:34.061Z,19.11
2023-05-01T14:39:04.159Z,18.85
2023-05-01T14:41:32.235Z,18.68
2023-05-01T14:44:02.132Z,18.50
2023-05-01T14:46:31.943Z,18.27
2023-05-01T14:49:01.101Z,18.05
2023-05-01T14:51:32.265Z,17.75
2023-05-01T14:54:00.401Z,17.66
2023-05-01T14:56:28.186Z,17.58
2023-05-01T14:58:55.856Z,17.39
2023-05-01T15:02:21.034Z,17.17
2023-05-01T15:04:49.040Z,17.04
2023-05-01T15:07:17.312Z,17.08
2023-05-01T15:09:46.523Z,16.98
2023-05-01T15:12:14.109Z,16.82
2023-05-01T15:14:41.637Z,16.76
2023-05-01T15:17:09.227Z,16.86
2023-05-01T15:19:37.484Z,16.99
2023-05-01T15:22:05.073Z,17.08
2023-05-01T15:24:32.621Z,17.13
2023-05-01T15:27:00.577Z,17.23
2023-05-01T15:29:28.228Z,17.34
2023-05-01T15:32:08.189Z,17.44
2023-05-01T15:34:39.570Z,17.44
2023-05-01T15:37:07.460Z,17.49
2023-05-01T15:39:35.070Z,17.43
2023-05-01T15:42:02.646Z,17.28
2023-05-01T15:44:31.946Z,17.25
2023-05-01T15:46:59.508Z,17.29
2023-05-01T15:49:27.036Z,17.33
2023-05-01T15:51:55.206Z,17.22
2023-05-01T15:54:22.797Z,17.19
2023-05-01T15:56:50.375Z,17.17
2023-05-01T15:59:17.892Z,17.09
2023-05-01T16:01:45.768Z,16.97
2023-05-01T16:04:13.586Z,16.90
2023-05-01T16:06:42.250Z,16.84
2023-05-01T16:09:10.893Z,16.54
2023-05-01T16:11:38.586Z,16.34
2023-05-01T16:14:12.735Z,16.25
2023-05-01T16:16:42.274Z,16.17
2023-05-01T16:19:16.169Z,16.08
2023-05-01T16:21:44.085Z,16.01
2023-05-01T16:24:12.401Z,15.91
2023-05-01T16:26:41.552Z,15.82
2023-05-01T16:29:11.260Z,15.53
2023-05-01T16:31:44.881Z,15.12
2023-05-01T16:34:23.793Z,14.72
2023-05-01T16:36:51.499Z,14.44
2023-05-01T16:39:22.712Z,14.08
2023-05-01T17:04:41.696Z,12.82
2023-05-01T17:20:20.111Z,12.36
2023-05-01T17:22:47.716Z,12.35
2023-05-01T17:25:15.410Z,12.24
2023-05-01T17:27:43.112Z,12.12
2023-05-01T17:30:10.932Z,12.06
2023-05-01T17:32:38.699Z,12.01
2023-05-01T17:35:19.382Z,11.99
2023-05-01T17:42:59.488Z,11.85
2023-05-01T17:45:27.207Z,11.91
2023-05-01T17:47:56.331Z,12.00
2023-05-01T18:03:40.806Z,11.81
2023-05-01T18:13:54.799Z,11.69
2023-05-01T18:16:24.832Z,11.71
2023-05-01T18:19:01.693Z,11.65
2023-05-01T18:21:29.440Z,11.62
2023-05-01T18:23:57.045Z,11.61
2023-05-01T18:26:26.634Z,11.58
2023-05-01T18:29:00.810Z,11.56
2023-05-01T18:31:28.529Z,11.50
2023-05-01T18:33:56.353Z,11.40
2023-05-01T18:36:23.946Z,11.33
2023-05-01T18:43:39.449Z,11.20
2023-05-01T18:46:07.179Z,11.14
2023-05-01T18:48:34.954Z,11.06
2023-05-01T18:53:34.671Z,11.05
2023-05-01T18:56:02.339Z,11.07
2023-05-01T18:58:30.262Z,11.07
2023-05-01T19:00:57.832Z,11.07
2023-05-01T19:03:25.746Z,10.98
2023-05-01T19:05:53.271Z,10.89
2023-05-01T19:08:20.977Z,10.79
2023-05-01T19:10:48.486Z,10.70
2023-05-01T19:13:16.666Z,10.59
2023-05-01T19:15:44.248Z,10.56
2023-05-01T19:18:12.051Z,10.53
2023-05-01T19:20:39.728Z,10.53
2023-05-01T19:23:07.265Z,10.50
2023-05-01T19:25:35.988Z,10.47
2023-05-01T19:28:03.891Z,10.47
2023-05-01T19:30:31.821Z,10.44
2023-05-01T19:32:59.998Z,10.49
2023-05-01T19:35:27.707Z,10.53
2023-05-01T19:37:59.309Z,10.56
2023-05-01T19:40:26.923Z,10.56
2023-05-01T19:42:54.520Z,10.59
2023-05-01T19:45:22.281Z,10.61
2023-05-01T19:47:49.846Z,10.64
2023-05-01T19:50:21.163Z,10.57
2023-05-01T19:52:48.729Z,10.52
2023-05-01T19:55:17.106Z,10.50
2023-05-01T19:57:44.967Z,10.48
2023-05-01T20:00:13.000Z,10.47
2023-05-01T20:02:41.701Z,10.43
2023-05-01T20:05:53.336Z,10.38
2023-05-01T20:08:20.980Z,10.34
2023-05-01T20:10:48.440Z,10.29
2023-05-01T20:13:16.064Z,10.28
2023-05-01T20:15:43.603Z,10.31
2023-05-01T20:18:13.298Z,10.29
2023-05-01T20:20:41.062Z,10.30
2023-05-01T20:23:40.486Z,10.25
2023-05-01T20:30:43.779Z,10.24
2023-05-01T20:33:11.892Z,10.20
2023-05-01T20:35:39.585Z,10.21
2023-05-01T20:38:07.232Z,10.24
2023-05-01T20:40:40.030Z,10.23
2023-05-01T20:43:08.003Z,10.22
2023-05-01T20:45:35.582Z,10.21
2023-05-01T20:48:03.506Z,10.25
2023-05-01T20:50:31.488Z,10.23
2023-05-01T20:52:59.112Z,10.21
2023-05-01T20:55:28.135Z,10.18
2023-05-01T20:57:56.069Z,10.14
2023-05-01T21:00:29.379Z,10.14
2023-05-01T21:26:48.832Z,9.85
2023-05-01T21:29:16.463Z,9.83
2023-05-01T21:31:44.088Z,9.82
2023-05-01T21:34:11.933Z,9.83
2023-05-01T21:36:45.153Z,9.83
2023-05-01T21:39:13.006Z,9.83
2023-05-01T21:46:10.714Z,9.81
2023-05-01T21:48:52.068Z,9.80
2023-05-01T21:51:27.618Z,9.82
2023-05-01T21:53:55.649Z,9.86
2023-05-01T21:56:23.649Z,9.87
2023-05-01T21:58:54.222Z,9.89
2023-05-01T22:01:23.500Z,9.84
2023-05-01T22:03:51.705Z,9.77
2023-05-01T22:06:19.379Z,9.74
2023-05-01T22:08:47.018Z,9.73
2023-05-01T22:11:14.552Z,9.72
2023-05-01T22:13:42.071Z,9.74
2023-05-01T22:16:21.542Z,9.69
2023-05-01T22:18:50.605Z,9.70
2023-05-01T22:21:18.283Z,9.70
2023-05-01T22:23:45.854Z,9.68
2023-05-01T22:26:16.101Z,9.68
2023-05-01T22:29:08.443Z,9.69
2023-05-01T22:31:36.224Z,9.68
2023-05-01T22:34:03.739Z,9.69
2023-05-01T22:36:31.527Z,9.71
2023-05-01T22:38:59.021Z,9.69
2023-05-01T22:41:26.801Z,9.69
2023-05-01T22:43:54.445Z,9.66
2023-05-01T22:46:23.000Z,9.57
2023-05-01T22:48:50.611Z,9.54
2023-05-01T22:51:18.263Z,9.52
2023-05-01T22:53:46.575Z,9.52
2023-05-01T22:56:14.182Z,9.52
2023-05-01T22:58:42.788Z,9.53
2023-05-01T23:01:10.479Z,9.49
2023-05-01T23:03:39.099Z,9.50
2023-05-01T23:06:07.072Z,9.47
2023-05-01T23:08:34.742Z,9.47
2023-05-01T23:11:02.371Z,9.46
2023-05-01T23:13:32.261Z,9.46
2023-05-01T23:15:59.899Z,9.46
2023-05-01T23:18:33.195Z,9.47
2023-05-01T23:21:00.943Z,9.46
2023-05-01T23:23:34.723Z,9.45
2023-05-01T23:26:02.359Z,9.50
2023-05-01T23:28:30.504Z,9.49
2023-05-01T23:31:00.675Z,9.49
2023-05-01T23:33:37.972Z,9.45
2023-05-01T23:36:12.920Z,9.44
2023-05-01T23:38:40.635Z,9.42
2023-05-01T23:41:08.385Z,9.39
2023-05-01T23:43:37.988Z,9.39
2023-05-01T23:46:07.639Z,9.39
2023-05-01T23:48:36.008Z,9.38
2023-05-01T23:51:03.748Z,9.41
2023-05-01T23:53:31.554Z,9.40
2023-05-01T23:55:59.324Z,9.35
2023-05-01T23:58:26.846Z,9.31
